Time;durP1;ratioP1;P1;durP2;ratioP2;P2;SDS_P1;SDS_P2;PMS_P1;PMS_P2;Temp;Humidity;BMP_temperature;BMP_pressure;BME280_temperature;BME280_humidity;BME280_pressure;Samples;Min_cycle;Max_cycle;Signal;HPM_P1;HPM_P2
2021/04/17 00:00:30;;;;;;;15.95;11.82;;;-2.30;99.90;;;;;;2081133;28;20173;-65
2021/04/17 00:01:33;;;;;;;21.42;11.93;;;-2.30;99.90;;;;;;2080962;28;20555;-65
2021/04/17 00:02:34;;;;;;;19.08;12.30;;;-2.30;99.90;;;;;;2081206;28;20279;-65
2021/04/17 00:03:34;;;;;;;19.30;12.50;;;-2.30;99.90;;;;;;2081239;28;20182;-65
2021/04/17 00:04:39;;;;;;;21.20;12.80;;;-2.30;99.90;;;;;;2080884;28;20216;-65
2021/04/17 00:05:39;;;;;;;18.02;12.38;;;-2.30;99.90;;;;;;2081209;28;20200;-65
2021/04/17 00:06:40;;;;;;;18.97;13.10;;;-2.30;99.90;;;;;;2081057;28;20188;-66
2021/04/17 00:07:41;;;;;;;18.00;11.97;;;-2.30;99.90;;;;;;2088636;28;20212;-66
2021/04/17 00:08:42;;;;;;;19.60;12.57;;;-2.30;99.90;;;;;;2088811;28;20177;-65
2021/04/17 00:09:43;;;;;;;16.33;11.30;;;-2.30;99.90;;;;;;2080544;28;20177;-66
2021/04/17 00:10:43;;;;;;;16.73;12.05;;;-2.30;99.90;;;;;;2080339;28;20235;-65
2021/04/17 00:11:46;;;;;;;18.67;11.73;;;-2.20;99.90;;;;;;2080279;28;20181;-65
2021/04/17 00:12:46;;;;;;;17.83;12.80;;;-2.20;99.90;;;;;;2080568;28;20177;-65
2021/04/17 00:13:48;;;;;;;18.07;12.10;;;-2.20;99.90;;;;;;2081106;28;20181;-65
2021/04/17 00:14:51;;;;;;;16.92;11.75;;;-2.20;99.90;;;;;;2080966;28;20201;-65
2021/04/17 00:15:51;;;;;;;18.33;11.98;;;-2.20;99.90;;;;;;2081286;28;20186;-65
2021/04/17 00:16:52;;;;;;;18.10;12.53;;;-2.20;99.90;;;;;;2080960;28;20188;-66
2021/04/17 00:17:53;;;;;;;16.97;11.90;;;-2.20;99.90;;;;;;2081105;28;20277;-65
2021/04/17 00:18:54;;;;;;;20.30;12.93;;;-2.10;99.90;;;;;;2080997;28;20193;-65
2021/04/17 00:19:55;;;;;;;18.27;12.57;;;-2.10;99.90;;;;;;2080471;28;20723;-65
2021/04/17 00:20:56;;;;;;;18.63;12.77;;;-2.10;99.90;;;;;;2064078;28;20268;-65
2021/04/17 00:21:57;;;;;;;19.40;13.60;;;-2.00;99.90;;;;;;2072141;28;20252;-65
2021/04/17 00:22:58;;;;;;;19.23;13.00;;;-2.00;99.90;;;;;;2080988;28;20181;-66
2021/04/17 00:23:59;;;;;;;18.30;12.80;;;-2.00;99.90;;;;;;2080955;28;20192;-65
2021/04/17 00:25:00;;;;;;;18.17;12.45;;;-1.90;99.90;;;;;;2080927;28;20276;-65
2021/04/17 00:26:01;;;;;;;20.23;12.83;;;-1.90;99.90;;;;;;2081014;28;20180;-65
2021/04/17 00:27:03;;;;;;;19.92;13.38;;;-1.80;99.90;;;;;;2080869;28;20235;-66
2021/04/17 00:28:04;;;;;;;16.52;12.38;;;-1.80;99.90;;;;;;2080881;28;20692;-65
2021/04/17 00:29:06;;;;;;;15.97;12.10;;;-1.70;99.90;;;;;;2080900;28;20209;-65
2021/04/17 00:30:08;;;;;;;17.63;12.55;;;-1.70;99.90;;;;;;2081068;28;20187;-65
2021/04/17 00:31:09;;;;;;;19.23;12.98;;;-1.60;99.90;;;;;;2080778;28;20212;-67
2021/04/17 00:32:10;;;;;;;18.27;12.50;;;-1.60;99.90;;;;;;2080966;28;20178;-66
2021/04/17 00:33:11;;;;;;;16.27;12.20;;;-1.60;99.90;;;;;;2081018;28;20216;-65
2021/04/17 00:34:11;;;;;;;17.00;11.13;;;-1.60;99.90;;;;;;2080996;28;20189;-65
2021/04/17 00:35:13;;;;;;;17.20;12.97;;;-1.60;99.90;;;;;;2080781;28;20232;-65
2021/04/17 00:36:14;;;;;;;18.60;12.35;;;-1.60;99.90;;;;;;2080468;28;20193;-66
2021/04/17 00:37:15;;;;;;;17.83;12.83;;;-1.60;99.90;;;;;;2080454;28;20187;-65
2021/04/17 00:38:16;;;;;;;18.90;13.13;;;-1.60;99.90;;;;;;2080812;28;20562;-66
2021/04/17 00:39:16;;;;;;;16.90;11.83;;;-1.60;99.90;;;;;;2081031;28;20255;-65
2021/04/17 00:40:17;;;;;;;18.63;12.37;;;-1.60;99.90;;;;;;2080781;28;20554;-65
2021/04/17 00:41:18;;;;;;;18.25;11.98;;;-1.60;99.90;;;;;;2080788;28;20231;-65
2021/04/17 00:42:19;;;;;;;16.17;11.80;;;-1.60;99.90;;;;;;2080871;28;20275;-66
2021/04/17 00:43:20;;;;;;;17.30;12.50;;;-1.60;99.90;;;;;;2080883;28;20207;-65
2021/04/17 00:44:21;;;;;;;19.58;12.30;;;-1.60;99.90;;;;;;2080995;28;20594;-65
2021/04/17 00:45:22;;;;;;;17.70;12.97;;;-1.60;99.90;;;;;;2082494;28;20244;-65
2021/04/17 00:46:23;;;;;;;18.47;12.67;;;-1.60;99.90;;;;;;2082804;28;20188;-65
2021/04/17 00:47:24;;;;;;;19.52;13.50;;;-1.60;99.90;;;;;;2081932;28;20229;-65
2021/04/17 00:48:25;;;;;;;19.67;14.30;;;-1.60;99.90;;;;;;2081955;28;20785;-65
2021/04/17 00:49:25;;;;;;;17.27;12.50;;;-1.60;99.90;;;;;;2082814;28;20197;-66
2021/04/17 00:50:26;;;;;;;17.67;12.33;;;-1.60;99.90;;;;;;2082688;28;20200;-65
2021/04/17 00:51:27;;;;;;;20.40;13.90;;;-1.60;99.90;;;;;;2082499;28;20175;-65
2021/04/17 00:52:28;;;;;;;19.47;13.53;;;-1.50;99.90;;;;;;2090168;28;20230;-65
2021/04/17 00:53:28;;;;;;;19.80;12.93;;;-1.50;99.90;;;;;;2090249;28;20415;-64
2021/04/17 00:54:29;;;;;;;21.87;14.63;;;-1.60;99.90;;;;;;2089998;28;20185;-65
2021/04/17 00:55:30;;;;;;;18.60;13.23;;;-1.50;99.90;;;;;;2090129;28;20178;-65
2021/04/17 00:56:31;;;;;;;22.03;13.70;;;-1.60;99.90;;;;;;2082319;28;20173;-65
2021/04/17 00:57:31;;;;;;;17.83;12.60;;;-1.60;99.90;;;;;;2082722;28;20545;-64
2021/04/17 00:58:33;;;;;;;20.17;13.47;;;-1.60;99.90;;;;;;2082525;28;20239;-65
2021/04/17 00:59:34;;;;;;;19.33;13.00;;;-1.60;99.90;;;;;;2082514;28;20173;-66
2021/04/17 01:00:37;;;;;;;20.87;13.50;;;-1.60;99.90;;;;;;2082363;28;20653;-65
2021/04/17 01:01:38;;;;;;;21.27;12.98;;;-1.60;99.90;;;;;;2082282;28;20179;-65
2021/04/17 01:02:55;;;;;;;21.27;14.88;;;-1.60;99.90;;;;;;2090049;28;20188;-65
2021/04/17 01:04:10;;;;;;;21.35;14.25;;;-1.60;99.90;;;;;;2087922;28;20170;-65
2021/04/17 01:05:15;;;;;;;19.23;13.20;;;-1.60;99.90;;;;;;2081528;28;20222;-65
2021/04/17 01:06:32;;;;;;;18.15;12.98;;;-1.50;99.90;;;;;;2074269;28;20228;-65
2021/04/17 01:07:40;;;;;;;20.45;12.88;;;-1.50;99.90;;;;;;2075963;28;20668;-65
2021/04/17 01:08:50;;;;;;;19.13;13.27;;;-1.50;99.90;;;;;;2082842;28;20165;-65
2021/04/17 01:10:21;;;;;;;21.15;13.73;;;-1.40;99.90;;;;;;2081947;28;20549;-65
2021/04/17 01:11:52;;;;;;;19.90;12.63;;;-1.40;99.90;;;;;;2077699;28;20237;-64
2021/04/17 01:12:55;;;;;;;20.20;13.40;;;-1.30;99.90;;;;;;2074661;28;20195;-64
2021/04/17 01:13:57;;;;;;;18.52;12.20;;;-1.30;99.90;;;;;;2082541;28;20642;-65
2021/04/17 01:14:59;;;;;;;20.27;13.90;;;-1.20;99.90;;;;;;2082421;28;20213;-64
2021/04/17 01:16:02;;;;;;;19.45;13.82;;;-1.10;99.90;;;;;;2082364;28;20196;-64
2021/04/17 01:17:06;;;;;;;19.70;14.68;;;-1.10;99.90;;;;;;2082576;28;20178;-64
2021/04/17 01:18:08;;;;;;;24.38;16.42;;;-1.00;99.90;;;;;;2082342;28;20190;-65
2021/04/17 01:19:12;;;;;;;22.77;16.02;;;-0.90;99.90;;;;;;2081810;28;20184;-64
2021/04/17 01:20:32;;;;;;;20.65;14.88;;;-0.90;99.90;;;;;;2074183;28;20191;-64
2021/04/17 01:21:34;;;;;;;22.90;15.90;;;-0.80;99.90;;;;;;2081570;28;20565;-65
2021/04/17 01:22:36;;;;;;;21.23;15.45;;;-0.70;99.90;;;;;;2089948;28;20190;-64
2021/04/17 01:23:42;;;;;;;19.00;14.98;;;-0.70;99.90;;;;;;2089563;28;20230;-64
2021/04/17 01:24:46;;;;;;;20.80;15.38;;;-0.70;99.90;;;;;;2074338;28;20174;-64
2021/04/17 01:25:59;;;;;;;24.25;17.17;;;-0.70;99.90;;;;;;2073891;28;20215;-64
2021/04/17 01:27:00;;;;;;;23.88;16.30;;;-0.60;99.90;;;;;;2075090;28;20230;-64
2021/04/17 01:28:00;;;;;;;23.53;16.37;;;-0.60;99.90;;;;;;2073392;28;20592;-64
2021/04/17 01:29:01;;;;;;;22.20;15.83;;;-0.60;99.90;;;;;;2081552;28;20436;-64
2021/04/17 01:30:10;;;;;;;22.40;15.20;;;-0.50;99.90;;;;;;2082143;28;20212;-65
2021/04/17 01:31:15;;;;;;;21.08;14.95;;;-0.50;99.90;;;;;;2082391;28;20199;-64
2021/04/17 01:32:16;;;;;;;22.50;16.25;;;-0.40;99.90;;;;;;2089833;28;20180;-64
2021/04/17 01:33:18;;;;;;;23.80;15.88;;;-0.40;99.90;;;;;;2089847;28;20190;-64
2021/04/17 01:34:20;;;;;;;24.27;17.25;;;-0.40;99.90;;;;;;2082032;28;20182;-64
2021/04/17 01:35:22;;;;;;;24.27;17.20;;;-0.40;99.90;;;;;;2081486;28;20205;-64
2021/04/17 01:36:25;;;;;;;24.58;17.48;;;-0.40;99.90;;;;;;2081489;28;20673;-64
2021/04/17 01:37:52;;;;;;;24.85;15.95;;;-0.30;99.90;;;;;;2089804;28;20219;-65
2021/04/17 01:39:11;;;;;;;24.08;16.42;;;-0.30;99.90;;;;;;2086421;28;20197;-64
2021/04/17 01:40:13;;;;;;;23.85;16.40;;;-0.20;99.90;;;;;;2082104;28;20643;-64
2021/04/17 01:41:53;;;;;;;23.58;16.67;;;-0.20;99.90;;;;;;2089520;28;20722;-65
2021/04/17 01:42:55;;;;;;;23.65;16.63;;;-0.10;99.90;;;;;;2059446;28;20197;-64
2021/04/17 01:44:03;;;;;;;26.65;18.17;;;-0.10;99.90;;;;;;2056725;28;20265;-66
2021/04/17 01:45:04;;;;;;;23.77;16.88;;;-0.10;99.90;;;;;;2054511;28;20214;-65
2021/04/17 01:46:13;;;;;;;24.55;17.10;;;-0.10;99.90;;;;;;2073337;28;20673;-65
2021/04/17 01:47:15;;;;;;;24.52;17.20;;;-0.10;99.90;;;;;;2073915;28;20648;-64
2021/04/17 01:48:18;;;;;;;26.75;18.67;;;-0.10;99.90;;;;;;2073210;28;20733;-65
2021/04/17 01:49:21;;;;;;;25.63;17.67;;;-0.10;99.90;;;;;;2073447;28;20630;-64
2021/04/17 01:50:23;;;;;;;25.23;17.27;;;0.00;99.90;;;;;;2073171;28;20669;-65
2021/04/17 01:51:26;;;;;;;25.40;18.17;;;0.00;99.90;;;;;;2065267;28;20182;-65
2021/04/17 01:52:27;;;;;;;25.52;18.05;;;0.00;99.90;;;;;;2073321;28;20184;-65
2021/04/17 01:53:31;;;;;;;27.83;18.27;;;0.10;99.90;;;;;;2073445;28;20576;-65
2021/04/17 01:54:43;;;;;;;27.30;18.70;;;0.00;99.90;;;;;;2073250;28;20285;-64
2021/04/17 01:55:47;;;;;;;26.77;17.70;;;0.10;99.90;;;;;;2073436;28;20634;-65
2021/04/17 01:56:50;;;;;;;27.48;18.25;;;0.10;99.90;;;;;;2072982;28;20190;-65
2021/04/17 01:57:53;;;;;;;27.23;18.08;;;0.00;99.90;;;;;;2065587;28;20192;-65
2021/04/17 01:58:56;;;;;;;26.48;18.35;;;0.10;99.90;;;;;;2065015;28;20578;-65
2021/04/17 01:59:57;;;;;;;25.70;17.00;;;0.10;99.90;;;;;;2065542;28;20652;-65
2021/04/17 02:00:59;;;;;;;28.85;19.13;;;0.00;99.90;;;;;;2073705;28;20195;-65
2021/04/17 02:02:00;;;;;;;27.08;18.17;;;0.00;99.90;;;;;;2073772;28;20179;-65
2021/04/17 02:03:01;;;;;;;25.48;18.08;;;0.10;99.90;;;;;;2073921;28;20196;-65
2021/04/17 02:04:02;;;;;;;23.55;17.05;;;0.10;99.90;;;;;;2073946;28;20193;-65
2021/04/17 02:05:03;;;;;;;26.97;17.33;;;0.10;99.90;;;;;;2073547;28;20346;-65
2021/04/17 02:06:05;;;;;;;28.42;19.42;;;0.00;99.90;;;;;;2073807;28;20204;-64
2021/04/17 02:07:05;;;;;;;25.73;18.10;;;0.00;99.90;;;;;;2073844;28;20214;-65
2021/04/17 02:08:06;;;;;;;26.30;18.40;;;0.00;99.90;;;;;;2073688;28;20586;-65
2021/04/17 02:09:07;;;;;;;27.20;18.50;;;0.10;99.90;;;;;;2073630;28;20179;-65
2021/04/17 02:10:09;;;;;;;26.42;18.90;;;0.10;99.90;;;;;;2073659;28;20406;-65
2021/04/17 02:11:10;;;;;;;29.33;19.10;;;0.10;99.90;;;;;;2072994;28;20200;-64
2021/04/17 02:12:10;;;;;;;29.70;19.53;;;0.10;99.90;;;;;;2073455;28;20208;-65
2021/04/17 02:13:12;;;;;;;30.47;20.47;;;0.10;99.90;;;;;;2073580;28;20205;-65
2021/04/17 02:14:13;;;;;;;33.20;20.35;;;0.10;99.90;;;;;;2076407;28;20272;-65
2021/04/17 02:15:14;;;;;;;32.03;20.83;;;0.00;99.90;;;;;;2073063;28;20212;-65
2021/04/17 02:16:26;;;;;;;30.10;19.73;;;0.10;99.90;;;;;;2081425;28;20187;-65
2021/04/17 02:17:43;;;;;;;33.13;20.45;;;0.10;99.90;;;;;;2081621;28;20255;-65
2021/04/17 02:19:00;;;;;;;28.33;18.85;;;0.10;99.90;;;;;;2081891;28;20163;-65
2021/04/17 02:20:13;;;;;;;30.48;19.30;;;0.10;99.90;;;;;;2082166;28;20256;-65
2021/04/17 02:21:20;;;;;;;26.70;18.75;;;0.10;99.90;;;;;;2082162;28;20192;-65
2021/04/17 02:22:23;;;;;;;29.10;19.35;;;0.10;99.90;;;;;;2081509;28;20693;-64
2021/04/17 02:23:24;;;;;;;27.77;19.15;;;0.10;99.90;;;;;;2081757;28;20230;-64
2021/04/17 02:24:27;;;;;;;31.63;21.13;;;0.10;99.90;;;;;;2081309;28;20195;-65
2021/04/17 02:25:29;;;;;;;30.25;19.92;;;0.10;99.90;;;;;;2081395;28;20696;-65
2021/04/17 02:26:30;;;;;;;30.02;19.88;;;0.10;99.90;;;;;;2081221;28;20801;-64
2021/04/17 02:27:31;;;;;;;31.83;19.83;;;0.10;99.90;;;;;;2081144;28;20171;-65
2021/04/17 02:28:32;;;;;;;29.00;19.25;;;0.10;99.90;;;;;;2081007;28;20916;-65
2021/04/17 02:29:33;;;;;;;30.30;20.50;;;0.00;99.90;;;;;;2081155;28;20229;-65
2021/04/17 02:30:38;;;;;;;28.90;19.27;;;0.00;99.90;;;;;;2081502;28;20697;-64
2021/04/17 02:31:39;;;;;;;29.20;20.25;;;0.00;99.90;;;;;;2081577;28;20193;-65
2021/04/17 02:32:39;;;;;;;30.97;19.63;;;0.00;99.90;;;;;;2081545;28;20646;-65
2021/04/17 02:33:40;;;;;;;26.90;19.10;;;0.00;99.90;;;;;;2081605;28;20179;-65
2021/04/17 02:34:42;;;;;;;28.73;19.10;;;-0.10;99.90;;;;;;2080779;28;20654;-64
2021/04/17 02:35:42;;;;;;;27.90;18.73;;;-0.20;99.90;;;;;;2080991;28;20172;-65
2021/04/17 02:36:43;;;;;;;28.47;18.53;;;-0.20;99.90;;;;;;2081685;28;20189;-65
2021/04/17 02:37:44;;;;;;;26.87;18.60;;;-0.20;99.90;;;;;;2081473;28;20259;-65
2021/04/17 02:38:45;;;;;;;27.30;18.90;;;-0.30;99.90;;;;;;2081258;28;20230;-65
2021/04/17 02:39:46;;;;;;;28.17;19.00;;;-0.30;99.90;;;;;;2081472;28;20187;-65
2021/04/17 02:40:47;;;;;;;29.67;19.70;;;-0.30;99.90;;;;;;2081454;28;20251;-65
2021/04/17 02:41:48;;;;;;;27.40;18.73;;;-0.30;99.90;;;;;;2081340;28;20231;-65
2021/04/17 02:42:48;;;;;;;29.90;19.97;;;-0.30;99.90;;;;;;2081371;28;20187;-65
2021/04/17 02:43:49;;;;;;;28.63;19.10;;;-0.30;99.90;;;;;;2081360;28;20226;-65
2021/04/17 02:44:50;;;;;;;30.23;19.73;;;-0.30;99.90;;;;;;2080796;28;20841;-64
2021/04/17 02:45:51;;;;;;;27.77;19.57;;;-0.30;99.90;;;;;;2080853;28;20193;-65
2021/04/17 02:46:51;;;;;;;28.07;19.63;;;-0.30;99.90;;;;;;2081465;28;20232;-65
2021/04/17 02:47:52;;;;;;;28.97;19.37;;;-0.30;99.90;;;;;;2081219;28;20294;-65
2021/04/17 02:48:53;;;;;;;31.70;20.37;;;-0.30;99.90;;;;;;2080779;28;20268;-65
2021/04/17 02:49:53;;;;;;;35.37;20.97;;;-0.30;99.90;;;;;;2080677;28;20207;-65
2021/04/17 02:50:54;;;;;;;32.33;20.90;;;-0.30;99.90;;;;;;2081498;28;20654;-65
2021/04/17 02:51:55;;;;;;;30.73;20.27;;;-0.30;99.90;;;;;;2081126;28;20188;-65
2021/04/17 02:52:56;;;;;;;33.17;22.17;;;-0.30;99.90;;;;;;2081509;28;20179;-65
2021/04/17 02:53:56;;;;;;;30.17;20.43;;;-0.30;99.90;;;;;;2081303;28;20258;-65
2021/04/17 02:54:57;;;;;;;27.70;19.43;;;-0.30;99.90;;;;;;2081335;28;20203;-64
2021/04/17 02:55:58;;;;;;;29.00;19.57;;;-0.30;99.90;;;;;;2081373;28;20183;-65
2021/04/17 02:56:58;;;;;;;28.90;19.60;;;-0.20;99.90;;;;;;2081506;28;20195;-65
2021/04/17 02:57:59;;;;;;;29.43;19.33;;;-0.20;99.90;;;;;;2081310;28;20187;-64
2021/04/17 02:59:00;;;;;;;32.47;21.07;;;-0.20;99.90;;;;;;2081377;28;20860;-65
2021/04/17 03:00:00;;;;;;;28.73;19.57;;;-0.20;99.90;;;;;;2081204;28;20259;-65
2021/04/17 03:01:02;;;;;;;29.30;18.70;;;-0.20;99.90;;;;;;2081331;28;20642;-65
2021/04/17 03:02:03;;;;;;;30.30;19.77;;;-0.20;99.90;;;;;;2081038;28;20184;-65
2021/04/17 03:03:04;;;;;;;31.07;19.47;;;-0.20;99.90;;;;;;2081377;28;20193;-65
2021/04/17 03:04:05;;;;;;;31.57;20.70;;;-0.20;99.90;;;;;;2081356;28;20216;-65
2021/04/17 03:05:08;;;;;;;28.80;18.93;;;-0.20;99.90;;;;;;2080540;28;20243;-65
2021/04/17 03:06:09;;;;;;;27.77;18.83;;;-0.30;99.90;;;;;;2080504;28;20190;-65
2021/04/17 03:07:10;;;;;;;32.70;20.70;;;-0.30;99.90;;;;;;2080573;28;20181;-64
2021/04/17 03:08:11;;;;;;;33.17;21.53;;;-0.40;99.90;;;;;;2080305;28;20683;-65
2021/04/17 03:09:13;;;;;;;27.50;19.27;;;-0.30;99.90;;;;;;2080722;28;20267;-65
2021/04/17 03:10:14;;;;;;;29.40;19.80;;;-0.30;99.90;;;;;;2081321;28;20184;-65
2021/04/17 03:11:15;;;;;;;28.63;18.77;;;-0.30;99.90;;;;;;2081069;28;20178;-65
2021/04/17 03:12:16;;;;;;;36.00;21.97;;;-0.30;99.90;;;;;;2081231;28;20185;-64
2021/04/17 03:13:17;;;;;;;32.43;20.37;;;-0.20;99.90;;;;;;2081326;28;20599;-65
2021/04/17 03:14:18;;;;;;;33.15;21.77;;;-0.20;99.90;;;;;;2081292;28;20188;-64
2021/04/17 03:15:19;;;;;;;36.10;21.57;;;-0.20;99.90;;;;;;2081237;28;20201;-65
2021/04/17 03:16:19;;;;;;;33.30;20.23;;;-0.20;99.90;;;;;;2081062;28;20271;-65
2021/04/17 03:17:20;;;;;;;32.43;20.00;;;-0.20;99.90;;;;;;2080653;28;20249;-65
2021/04/17 03:18:21;;;;;;;29.67;19.60;;;-0.20;99.90;;;;;;2080555;28;20178;-65
2021/04/17 03:19:22;;;;;;;30.20;19.50;;;-0.30;99.90;;;;;;2081226;28;20182;-65
2021/04/17 03:20:23;;;;;;;35.10;22.17;;;-0.30;99.90;;;;;;2081106;28;20221;-65
2021/04/17 03:21:24;;;;;;;35.50;21.27;;;-0.30;99.90;;;;;;2080884;28;20174;-65
2021/04/17 03:22:24;;;;;;;33.73;21.50;;;-0.30;99.90;;;;;;2081114;28;20642;-65
2021/04/17 03:23:25;;;;;;;33.63;22.57;;;-0.30;99.90;;;;;;2081047;28;20202;-64
2021/04/17 03:24:26;;;;;;;31.33;20.17;;;-0.30;99.90;;;;;;2081095;28;20264;-65
2021/04/17 03:25:26;;;;;;;31.67;20.27;;;-0.30;99.90;;;;;;2080962;28;20199;-64
2021/04/17 03:26:27;;;;;;;29.93;19.90;;;-0.40;99.90;;;;;;2081111;28;20182;-65
2021/04/17 03:27:28;;;;;;;31.30;19.47;;;-0.30;99.90;;;;;;2080885;28;20177;-65
2021/04/17 03:28:28;;;;;;;31.57;20.27;;;-0.40;99.90;;;;;;2081106;28;20174;-65
2021/04/17 03:29:29;;;;;;;30.70;19.53;;;-0.40;99.90;;;;;;2081050;28;20185;-64
2021/04/17 03:30:30;;;;;;;27.50;19.13;;;-0.40;99.90;;;;;;2081136;28;20265;-65
2021/04/17 03:31:31;;;;;;;32.63;20.60;;;-0.40;99.90;;;;;;2080754;28;20207;-65
2021/04/17 03:32:31;;;;;;;31.23;20.57;;;-0.40;99.90;;;;;;2081042;28;20179;-65
2021/04/17 03:33:32;;;;;;;31.20;21.07;;;-0.40;99.90;;;;;;2080945;28;20700;-64
2021/04/17 03:34:33;;;;;;;29.33;19.75;;;-0.40;99.90;;;;;;2080423;28;20170;-65
2021/04/17 03:35:34;;;;;;;34.03;20.97;;;-0.40;99.90;;;;;;2080420;28;20212;-65
2021/04/17 03:36:35;;;;;;;29.43;19.87;;;-0.40;99.90;;;;;;2081044;28;20175;-65
2021/04/17 03:37:37;;;;;;;28.02;18.92;;;-0.40;99.90;;;;;;2080950;28;20267;-65
2021/04/17 03:38:37;;;;;;;31.00;20.55;;;-0.30;99.90;;;;;;2081161;28;20189;-65
2021/04/17 03:39:38;;;;;;;31.63;20.50;;;-0.30;99.90;;;;;;2080969;28;20726;-64
2021/04/17 03:40:39;;;;;;;31.20;20.30;;;-0.30;99.90;;;;;;2080980;28;20183;-65
2021/04/17 03:41:40;;;;;;;31.63;20.13;;;-0.30;99.90;;;;;;2080747;28;20178;-65
2021/04/17 03:42:41;;;;;;;31.00;20.10;;;-0.30;99.90;;;;;;2081007;28;20438;-65
2021/04/17 03:43:42;;;;;;;26.42;19.05;;;-0.30;99.90;;;;;;2080988;28;20187;-65
2021/04/17 03:44:42;;;;;;;29.67;19.77;;;-0.30;99.90;;;;;;2081002;28;20188;-65
2021/04/17 03:45:43;;;;;;;31.03;19.73;;;-0.30;99.90;;;;;;2080956;28;20183;-65
2021/04/17 03:46:44;;;;;;;35.93;21.70;;;-0.20;99.90;;;;;;2081005;28;20202;-65
2021/04/17 03:47:45;;;;;;;28.77;19.50;;;-0.20;99.90;;;;;;2080847;28;20209;-65
2021/04/17 03:48:46;;;;;;;29.15;19.92;;;-0.20;99.90;;;;;;2080979;28;20185;-65
2021/04/17 03:49:46;;;;;;;31.93;20.67;;;-0.20;99.90;;;;;;2080876;28;20559;-65
2021/04/17 03:50:47;;;;;;;26.63;18.50;;;-0.30;99.90;;;;;;2080473;28;20314;-65
2021/04/17 03:51:49;;;;;;;37.83;21.42;;;-0.30;99.90;;;;;;2072020;28;20202;-65
2021/04/17 03:52:50;;;;;;;37.50;21.65;;;-0.30;99.90;;;;;;2081509;28;20507;-65
2021/04/17 03:53:52;;;;;;;30.13;18.55;;;-0.30;99.90;;;;;;2082152;28;20183;-65
2021/04/17 03:54:53;;;;;;;32.33;20.17;;;-0.30;99.90;;;;;;2080976;28;20214;-65
2021/04/17 03:55:53;;;;;;;33.13;20.47;;;-0.30;99.90;;;;;;2080852;28;20661;-65
2021/04/17 03:56:54;;;;;;;33.67;21.40;;;-0.30;99.90;;;;;;2081070;28;20188;-65
2021/04/17 03:57:55;;;;;;;27.93;18.83;;;-0.40;99.90;;;;;;2080811;28;20236;-65
2021/04/17 03:58:56;;;;;;;27.53;18.57;;;-0.40;99.90;;;;;;2080914;28;20174;-65
2021/04/17 03:59:56;;;;;;;32.33;20.87;;;-0.50;99.90;;;;;;2080898;28;20551;-65
2021/04/17 04:00:57;;;;;;;31.70;20.60;;;-0.50;99.90;;;;;;2080956;28;20210;-65
2021/04/17 04:01:58;;;;;;;27.43;18.33;;;-0.50;99.90;;;;;;2080660;28;20651;-64
2021/04/17 04:03:00;;;;;;;25.23;18.03;;;-0.50;99.90;;;;;;2080894;28;20653;-64
2021/04/17 04:04:01;;;;;;;30.77;19.85;;;-0.50;99.90;;;;;;2080942;28;20293;-64
2021/04/17 04:05:04;;;;;;;30.75;19.88;;;-0.50;99.90;;;;;;2080635;28;20589;-64
2021/04/17 04:06:05;;;;;;;32.10;20.20;;;-0.50;99.90;;;;;;2080872;28;20191;-63
2021/04/17 04:07:06;;;;;;;32.22;21.13;;;-0.50;99.90;;;;;;2080706;28;20243;-64
2021/04/17 04:08:07;;;;;;;34.05;21.05;;;-0.50;99.90;;;;;;2080799;28;20607;-63
2021/04/17 04:09:08;;;;;;;29.27;19.13;;;-0.50;99.90;;;;;;2080792;28;20186;-64
2021/04/17 04:10:12;;;;;;;33.40;20.40;;;-0.60;99.90;;;;;;2080798;28;20646;-64
2021/04/17 04:11:12;;;;;;;34.63;21.52;;;-0.60;99.90;;;;;;2080595;28;20870;-64
2021/04/17 04:12:13;;;;;;;33.10;20.40;;;-0.60;99.90;;;;;;2080802;28;20179;-64
2021/04/17 04:13:14;;;;;;;37.27;21.90;;;-0.60;99.90;;;;;;2080755;28;20207;-64
2021/04/17 04:14:15;;;;;;;31.70;20.00;;;-0.60;99.90;;;;;;2080828;28;20231;-64
2021/04/17 04:15:16;;;;;;;33.43;20.57;;;-0.70;99.90;;;;;;2080678;28;20560;-64
2021/04/17 04:16:17;;;;;;;34.50;21.17;;;-0.70;99.90;;;;;;2080859;28;20174;-64
2021/04/17 04:17:17;;;;;;;30.53;19.77;;;-0.70;99.90;;;;;;2080793;28;20218;-64
2021/04/17 04:18:18;;;;;;;33.13;19.33;;;-0.80;99.90;;;;;;2080892;28;20530;-64
2021/04/17 04:19:19;;;;;;;28.60;17.53;;;-0.90;99.90;;;;;;2080730;28;20180;-64
2021/04/17 04:20:20;;;;;;;31.13;19.90;;;-0.90;99.90;;;;;;2080724;28;20182;-64
2021/04/17 04:21:20;;;;;;;29.70;18.83;;;-0.90;99.90;;;;;;2080534;28;20644;-64
2021/04/17 04:22:21;;;;;;;28.70;19.17;;;-1.00;99.90;;;;;;2080852;28;20748;-63
2021/04/17 04:23:22;;;;;;;31.30;19.57;;;-1.00;99.90;;;;;;2080760;28;20261;-64
2021/04/17 04:24:22;;;;;;;32.33;20.03;;;-1.10;99.90;;;;;;2080795;28;20641;-64
2021/04/17 04:25:23;;;;;;;34.70;20.90;;;-1.20;99.90;;;;;;2080646;28;20225;-64
2021/04/17 04:26:24;;;;;;;30.80;19.50;;;-1.20;99.90;;;;;;2080849;28;20185;-64
2021/04/17 04:27:25;;;;;;;28.93;18.43;;;-1.20;99.90;;;;;;2080692;28;20183;-64
2021/04/17 04:28:26;;;;;;;33.53;21.00;;;-1.30;99.90;;;;;;2080815;28;20665;-64
2021/04/17 04:29:27;;;;;;;30.80;19.47;;;-1.30;99.90;;;;;;2080674;28;20181;-64
2021/04/17 04:30:28;;;;;;;30.05;18.35;;;-1.30;99.90;;;;;;2080805;28;20197;-64
2021/04/17 04:31:29;;;;;;;28.13;18.33;;;-1.40;99.90;;;;;;2080503;28;20641;-64
2021/04/17 04:32:30;;;;;;;28.23;18.50;;;-1.40;99.90;;;;;;2080738;28;20268;-64
2021/04/17 04:33:31;;;;;;;28.57;17.97;;;-1.40;99.90;;;;;;2080818;28;20185;-64
2021/04/17 04:34:31;;;;;;;28.07;17.47;;;-1.50;99.90;;;;;;2080688;28;20207;-63
2021/04/17 04:35:32;;;;;;;28.97;17.87;;;-1.50;99.90;;;;;;2080724;28;20184;-64
2021/04/17 04:36:33;;;;;;;30.70;18.60;;;-1.60;99.90;;;;;;2080752;28;20173;-64
2021/04/17 04:37:34;;;;;;;32.43;20.30;;;-1.60;99.90;;;;;;2080712;28;20423;-64
2021/04/17 04:38:35;;;;;;;32.60;19.10;;;-1.60;99.90;;;;;;2080830;28;20198;-64
2021/04/17 04:39:35;;;;;;;29.97;18.97;;;-1.60;99.90;;;;;;2088278;28;20554;-64
2021/04/17 04:40:36;;;;;;;31.07;19.43;;;-1.70;99.90;;;;;;2088495;28;20219;-64
2021/04/17 04:41:37;;;;;;;37.03;20.50;;;-1.70;99.90;;;;;;2080460;28;20173;-63
2021/04/17 04:42:38;;;;;;;32.10;19.83;;;-1.80;99.90;;;;;;2080767;28;20169;-64
2021/04/17 04:43:39;;;;;;;30.60;19.52;;;-1.80;99.90;;;;;;2080673;28;20177;-64
2021/04/17 04:44:39;;;;;;;27.87;16.77;;;-1.80;99.90;;;;;;2080624;28;20268;-64
2021/04/17 04:45:40;;;;;;;31.40;18.63;;;-1.80;99.90;;;;;;2080664;28;20181;-64
2021/04/17 04:46:41;;;;;;;32.10;20.20;;;-1.90;99.90;;;;;;2080632;28;20178;-64
2021/04/17 04:47:41;;;;;;;32.40;19.43;;;-1.90;99.90;;;;;;2080645;28;20232;-64
2021/04/17 04:48:42;;;;;;;29.03;18.57;;;-1.90;99.90;;;;;;2080527;28;20177;-64
2021/04/17 04:49:43;;;;;;;32.43;18.93;;;-1.90;99.90;;;;;;2080680;28;20267;-64
2021/04/17 04:50:44;;;;;;;30.63;17.77;;;-1.90;99.90;;;;;;2080560;28;20177;-64
2021/04/17 04:51:44;;;;;;;29.67;17.50;;;-2.00;99.90;;;;;;2080594;28;20272;-64
2021/04/17 04:52:45;;;;;;;28.27;18.70;;;-1.90;99.90;;;;;;2080563;28;20191;-64
2021/04/17 04:53:46;;;;;;;34.23;19.93;;;-1.90;99.90;;;;;;2080639;28;20177;-64
2021/04/17 04:54:46;;;;;;;29.10;18.20;;;-2.00;99.90;;;;;;2080458;28;20185;-63
2021/04/17 04:55:47;;;;;;;28.77;17.57;;;-1.90;99.90;;;;;;2080721;28;20208;-63
2021/04/17 04:56:48;;;;;;;32.17;18.43;;;-1.90;99.90;;;;;;2080556;28;20181;-63
2021/04/17 04:57:48;;;;;;;32.10;19.10;;;-1.90;99.90;;;;;;2080512;28;20211;-64
2021/04/17 04:58:50;;;;;;;28.90;18.10;;;-1.90;99.90;;;;;;2080534;28;20207;-64
2021/04/17 04:59:51;;;;;;;33.20;19.92;;;-1.90;99.90;;;;;;2080674;28;20185;-64
2021/04/17 05:00:51;;;;;;;27.93;18.33;;;-1.80;99.90;;;;;;2080520;28;20192;-64
2021/04/17 05:01:52;;;;;;;30.23;18.97;;;-1.80;99.90;;;;;;2080389;28;20178;-64
2021/04/17 05:02:53;;;;;;;28.23;17.53;;;-1.80;99.90;;;;;;2080504;28;20181;-64
2021/04/17 05:03:54;;;;;;;35.97;20.73;;;-1.70;99.90;;;;;;2080610;28;20183;-64
2021/04/17 05:04:54;;;;;;;32.57;19.70;;;-1.60;99.90;;;;;;2080359;28;20217;-64
2021/04/17 05:05:55;;;;;;;30.90;18.83;;;-1.60;99.90;;;;;;2080739;28;20212;-64
2021/04/17 05:06:56;;;;;;;29.20;18.10;;;-1.60;99.90;;;;;;2080506;28;20608;-64
2021/04/17 05:07:57;;;;;;;29.80;17.55;;;-1.50;99.90;;;;;;2080530;28;20205;-64
2021/04/17 05:08:58;;;;;;;30.60;19.10;;;-1.40;99.90;;;;;;2080510;28;20276;-64
2021/04/17 05:09:59;;;;;;;39.25;20.02;;;-1.40;99.90;;;;;;2080017;28;20181;-64
2021/04/17 05:10:59;;;;;;;45.73;23.33;;;-1.20;99.90;;;;;;2079888;28;20183;-64
2021/04/17 05:12:00;;;;;;;44.50;22.93;;;-1.20;99.90;;;;;;2080365;28;20219;-64
2021/04/17 05:13:01;;;;;;;47.40;25.07;;;-1.00;99.90;;;;;;2080484;28;20190;-64
2021/04/17 05:14:03;;;;;;;47.17;24.93;;;-1.00;99.90;;;;;;2080687;28;20186;-64
2021/04/17 05:15:05;;;;;;;36.00;21.33;;;-0.90;99.90;;;;;;2087848;28;20285;-64
2021/04/17 05:16:06;;;;;;;43.35;23.77;;;-0.90;99.90;;;;;;2087954;28;20199;-64